Sunday, August 28, 2016
16:39 UTC
  |  Log In   |  Register Free
Airport Search:

Coffeyville Municipal Airport
(KCFV)

Coffeyville Municipal Airport Diagram
No Airport Diagram Available

FAA data valid effective Jul 21 2016 - Sep 15 2016 (unless otherwise noted).

 
 
 
 
 
 
 
 
 
 
 
 
 
 
Current Aviation Weather for KCFV

Weather Summary


The most recent METAR observation for CFV was updated at: 12:52 UTC
METAR for CFV is not available. Closest METAR is for
METAR

METAR KCFV 281552Z 00000KT 10SM FEW026 SCT037 29/23 A3013 RMK AO2 SLP194 T02940228

METAR KCFV 281452Z VRB05KT 10SM CLR 28/23 A3013 RMK AO2 SLP193 T02830228 51008

METAR KCFV 281352Z 18005KT 10SM CLR 26/23 A3012 RMK AO2 SLP192 T02610228

METAR KBVO 281553Z VRB03KT 10SM FEW026 30/23 A3013 RMK AO2 SLP190 T03000233

METAR KCNU 281552Z 19006KT 10SM CLR 29/23 A3013 RMK AO2 SLP192 T02890233

METAR KIDP 281615Z 21004KT 10SM SCT027 SCT032 30/21 A3012 RMK AO2

TAF for CFV is not available.
TAF

KBVO - TAF KBVO 281124Z 2812/2912 00000KT 5SM BR BKN120

KBVO - FM281400 15005KT P6SM FEW060 BKN250

KBVO - FM281800 16005KT P6SM BKN050

KBVO - FM290100 00000KT P6SM SCT250 =

KCNU - TAF KCNU 281140Z 2812/2912 14005KT P6SM BKN150

KCNU - FM281800 17007KT P6SM BKN035 OVC150 =

GlobalAir.com is loading additional information.
 Current Weather at CFV
83.0 F° (28.3 C°)

Variable winds at 5.8 mph
Pressure:
30.13 in
Humidity:
72%
Wind:
Variable at 5.8 mph
Dew Point:
73.0 F° (22.8 C°)
Visibility:
10.00 mi
CFV NOAA Radar




Find All Airport Services Find A Hotel Find A Rental Car Find A Golf Course Find A Restaurant $100 Hamburger



Airport Weather Forecast for KCFV

Translated METAR for KCFV (1552 UTC)
METAR:
KCFV 281552Z AUTO Coffeyville Municipal, Coffeyville, KS (KCFV). Aug 28, 1552Z, Automated. Wind is Calm, 10 statute miles visibility, Few clouds at 2,600 feet, Scattered Clouds at 3,700 feet, Temperature 29°C, Dewpoint 23°C, Altimeter is 30.13. Remarks: automated station with precipitation discriminator sea level pressure 1019.4 hectopascals hourly temp 29.4°C dewpoint 22.8°C
Conditions at:
KCFV (Coffeyville Muni, KS) observed 1552 UTC 28 August 2016
Temperature:
83.0 F° (28.3 C°)
Dewpoint:
not reported - refer to area weather report
Pressure:
30.13 Hg
Winds:
not reported
Visibility:
10.00
Ceiling:
at least 12,000 feet AGL
Clouds:
not reported - refer to area weather report
Remarks:
site is un-manned

Translated TAF for TAF for CFV is not available. Refer to local area forecast.
FBO's on the Field
FBO Company Facility Photos Services Transportation Aviation Fuel Prices: Prices include tax
Catering Weather Repair Courtesy Rental Type 100LL JetA JetA+ MOGAS 8087
 
Coffeyville Aircraft, Inc

This FBO has not yet been rated
FS:Phillips 66
Last Updated: Aug-19
Login to update fuel prices
SS:
Contact Coffeyville Aircraft, IncMore FBO Information
 
Add another FBO Facility Photos Catering Weather Repair Courtesy Rental Type 100LL JetA JetA+ MOGAS 8087
Services Transportation Aviation Fuel Prices: Prices include tax


model-print
model-print
model-print
model-print